sensor_id;sensor_type;location;lat;lon;timestamp;P1;durP1;ratioP1;P2;durP2;ratioP2
84133;SDS011;74235;48.688;9.708;2024-01-06T00:00:23;2.15;;;1.60;;
84133;SDS011;74235;48.688;9.708;2024-01-06T00:05:20;1.63;;;1.30;;
84133;SDS011;74235;48.688;9.708;2024-01-06T00:07:47;2.00;;;1.40;;
84133;SDS011;74235;48.688;9.708;2024-01-06T00:12:44;1.73;;;1.45;;
84133;SDS011;74235;48.688;9.708;2024-01-06T00:15:12;2.08;;;1.60;;
84133;SDS011;74235;48.688;9.708;2024-01-06T00:17:40;1.73;;;1.40;;
84133;SDS011;74235;48.688;9.708;2024-01-06T00:20:09;1.75;;;1.42;;
84133;SDS011;74235;48.688;9.708;2024-01-06T00:22:38;1.98;;;1.52;;
84133;SDS011;74235;48.688;9.708;2024-01-06T00:27:33;1.20;;;1.10;;
84133;SDS011;74235;48.688;9.708;2024-01-06T00:30:01;2.20;;;1.60;;
84133;SDS011;74235;48.688;9.708;2024-01-06T00:34:56;2.08;;;1.33;;
84133;SDS011;74235;48.688;9.708;2024-01-06T00:37:25;2.10;;;1.60;;
84133;SDS011;74235;48.688;9.708;2024-01-06T00:39:53;1.92;;;1.55;;
84133;SDS011;74235;48.688;9.708;2024-01-06T00:44:48;1.75;;;1.65;;
84133;SDS011;74235;48.688;9.708;2024-01-06T00:49:44;1.65;;;1.40;;
84133;SDS011;74235;48.688;9.708;2024-01-06T00:52:12;1.90;;;1.45;;
84133;SDS011;74235;48.688;9.708;2024-01-06T00:54:41;1.65;;;1.45;;
84133;SDS011;74235;48.688;9.708;2024-01-06T00:57:09;1.67;;;1.42;;
84133;SDS011;74235;48.688;9.708;2024-01-06T00:59:36;2.05;;;1.50;;
84133;SDS011;74235;48.688;9.708;2024-01-06T01:02:04;2.17;;;1.58;;
84133;SDS011;74235;48.688;9.708;2024-01-06T01:06:59;1.90;;;1.52;;
84133;SDS011;74235;48.688;9.708;2024-01-06T01:11:56;1.92;;;1.52;;
84133;SDS011;74235;48.688;9.708;2024-01-06T01:14:23;1.48;;;1.30;;
84133;SDS011;74235;48.688;9.708;2024-01-06T01:16:51;1.27;;;1.17;;
84133;SDS011;74235;48.688;9.708;2024-01-06T01:19:19;1.20;;;1.10;;
84133;SDS011;74235;48.688;9.708;2024-01-06T01:21:47;2.08;;;1.77;;
84133;SDS011;74235;48.688;9.708;2024-01-06T01:24:14;1.63;;;1.50;;
84133;SDS011;74235;48.688;9.708;2024-01-06T01:26:42;1.70;;;1.30;;
84133;SDS011;74235;48.688;9.708;2024-01-06T01:29:11;1.80;;;1.42;;
84133;SDS011;74235;48.688;9.708;2024-01-06T01:31:39;1.65;;;1.30;;
84133;SDS011;74235;48.688;9.708;2024-01-06T01:34:07;2.10;;;1.50;;
84133;SDS011;74235;48.688;9.708;2024-01-06T01:36:34;1.50;;;1.40;;
84133;SDS011;74235;48.688;9.708;2024-01-06T01:39:02;1.67;;;1.20;;
84133;SDS011;74235;48.688;9.708;2024-01-06T01:41:30;1.58;;;1.33;;
84133;SDS011;74235;48.688;9.708;2024-01-06T01:43:57;1.35;;;1.25;;
84133;SDS011;74235;48.688;9.708;2024-01-06T01:46:27;1.75;;;1.45;;
84133;SDS011;74235;48.688;9.708;2024-01-06T01:48:56;1.15;;;1.05;;
84133;SDS011;74235;48.688;9.708;2024-01-06T01:51:28;1.85;;;1.30;;
84133;SDS011;74235;48.688;9.708;2024-01-06T01:53:57;1.90;;;1.42;;
84133;SDS011;74235;48.688;9.708;2024-01-06T01:58:53;1.33;;;1.02;;
84133;SDS011;74235;48.688;9.708;2024-01-06T02:01:21;1.83;;;1.58;;
84133;SDS011;74235;48.688;9.708;2024-01-06T02:03:51;1.95;;;1.77;;
84133;SDS011;74235;48.688;9.708;2024-01-06T02:06:19;1.10;;;1.00;;
84133;SDS011;74235;48.688;9.708;2024-01-06T02:08:47;2.67;;;1.90;;
84133;SDS011;74235;48.688;9.708;2024-01-06T02:11:14;1.67;;;1.45;;
84133;SDS011;74235;48.688;9.708;2024-01-06T02:13:42;1.77;;;1.55;;
84133;SDS011;74235;48.688;9.708;2024-01-06T02:18:37;1.42;;;1.27;;
84133;SDS011;74235;48.688;9.708;2024-01-06T02:21:06;1.88;;;1.45;;
84133;SDS011;74235;48.688;9.708;2024-01-06T02:23:36;1.48;;;1.38;;
84133;SDS011;74235;48.688;9.708;2024-01-06T02:26:04;1.77;;;1.45;;
84133;SDS011;74235;48.688;9.708;2024-01-06T02:28:32;1.38;;;1.27;;
84133;SDS011;74235;48.688;9.708;2024-01-06T02:30:59;1.77;;;1.30;;
84133;SDS011;74235;48.688;9.708;2024-01-06T02:33:27;0.75;;;0.75;;
84133;SDS011;74235;48.688;9.708;2024-01-06T02:35:55;1.48;;;1.17;;
84133;SDS011;74235;48.688;9.708;2024-01-06T02:40:51;1.10;;;1.00;;
84133;SDS011;74235;48.688;9.708;2024-01-06T02:43:19;2.03;;;1.40;;
84133;SDS011;74235;48.688;9.708;2024-01-06T02:48:15;1.20;;;0.93;;
84133;SDS011;74235;48.688;9.708;2024-01-06T02:50:43;1.92;;;1.42;;
84133;SDS011;74235;48.688;9.708;2024-01-06T02:53:11;1.33;;;1.10;;
84133;SDS011;74235;48.688;9.708;2024-01-06T02:55:39;1.17;;;1.00;;
84133;SDS011;74235;48.688;9.708;2024-01-06T02:58:09;1.15;;;1.00;;
84133;SDS011;74235;48.688;9.708;2024-01-06T03:00:36;2.42;;;1.50;;
84133;SDS011;74235;48.688;9.708;2024-01-06T03:03:04;1.38;;;1.27;;
84133;SDS011;74235;48.688;9.708;2024-01-06T03:05:32;1.20;;;1.10;;
84133;SDS011;74235;48.688;9.708;2024-01-06T03:10:27;1.10;;;1.00;;
84133;SDS011;74235;48.688;9.708;2024-01-06T03:12:55;1.05;;;0.95;;
84133;SDS011;74235;48.688;9.708;2024-01-06T03:17:52;1.35;;;1.25;;
84133;SDS011;74235;48.688;9.708;2024-01-06T03:20:20;1.15;;;1.05;;
84133;SDS011;74235;48.688;9.708;2024-01-06T03:22:47;1.00;;;0.95;;
84133;SDS011;74235;48.688;9.708;2024-01-06T03:25:16;1.63;;;1.50;;
84133;SDS011;74235;48.688;9.708;2024-01-06T03:30:12;1.48;;;1.30;;
84133;SDS011;74235;48.688;9.708;2024-01-06T03:32:41;1.23;;;1.05;;
84133;SDS011;74235;48.688;9.708;2024-01-06T03:35:09;1.40;;;1.05;;
84133;SDS011;74235;48.688;9.708;2024-01-06T03:40:05;1.30;;;1.20;;
84133;SDS011;74235;48.688;9.708;2024-01-06T03:42:33;1.63;;;1.40;;
84133;SDS011;74235;48.688;9.708;2024-01-06T03:47:28;1.20;;;1.10;;
84133;SDS011;74235;48.688;9.708;2024-01-06T03:49:57;1.23;;;1.10;;
84133;SDS011;74235;48.688;9.708;2024-01-06T03:52:25;1.17;;;1.08;;
84133;SDS011;74235;48.688;9.708;2024-01-06T03:54:53;1.17;;;1.08;;
84133;SDS011;74235;48.688;9.708;2024-01-06T03:57:20;1.17;;;1.08;;
84133;SDS011;74235;48.688;9.708;2024-01-06T03:59:48;1.20;;;1.10;;
84133;SDS011;74235;48.688;9.708;2024-01-06T04:02:16;0.93;;;0.93;;
84133;SDS011;74235;48.688;9.708;2024-01-06T04:04:43;1.20;;;1.10;;
84133;SDS011;74235;48.688;9.708;2024-01-06T04:07:13;1.13;;;1.02;;
84133;SDS011;74235;48.688;9.708;2024-01-06T04:09:41;1.55;;;1.33;;
84133;SDS011;74235;48.688;9.708;2024-01-06T04:12:09;1.48;;;1.20;;
84133;SDS011;74235;48.688;9.708;2024-01-06T04:14:37;1.40;;;1.30;;
84133;SDS011;74235;48.688;9.708;2024-01-06T04:17:05;1.98;;;1.40;;
84133;SDS011;74235;48.688;9.708;2024-01-06T04:19:32;1.58;;;1.27;;
84133;SDS011;74235;48.688;9.708;2024-01-06T04:22:00;1.10;;;1.00;;
84133;SDS011;74235;48.688;9.708;2024-01-06T04:26:57;1.58;;;1.20;;
84133;SDS011;74235;48.688;9.708;2024-01-06T04:31:52;1.63;;;1.17;;
84133;SDS011;74235;48.688;9.708;2024-01-06T04:34:20;0.85;;;0.85;;
84133;SDS011;74235;48.688;9.708;2024-01-06T04:36:47;0.73;;;0.73;;
84133;SDS011;74235;48.688;9.708;2024-01-06T04:39:17;1.30;;;1.10;;
84133;SDS011;74235;48.688;9.708;2024-01-06T04:41:46;1.35;;;1.10;;
84133;SDS011;74235;48.688;9.708;2024-01-06T04:44:13;1.17;;;1.05;;
84133;SDS011;74235;48.688;9.708;2024-01-06T04:49:08;1.10;;;1.00;;
84133;SDS011;74235;48.688;9.708;2024-01-06T04:51:37;0.88;;;0.88;;
84133;SDS011;74235;48.688;9.708;2024-01-06T04:54:05;1.23;;;1.13;;
84133;SDS011;74235;48.688;9.708;2024-01-06T04:59:04;0.80;;;0.80;;
84133;SDS011;74235;48.688;9.708;2024-01-06T05:01:32;0.75;;;0.75;;
84133;SDS011;74235;48.688;9.708;2024-01-06T05:04:00;0.95;;;0.95;;
84133;SDS011;74235;48.688;9.708;2024-01-06T05:06:28;1.05;;;1.02;;
84133;SDS011;74235;48.688;9.708;2024-01-06T05:08:56;0.90;;;0.90;;
84133;SDS011;74235;48.688;9.708;2024-01-06T05:11:24;0.80;;;0.80;;
84133;SDS011;74235;48.688;9.708;2024-01-06T05:16:20;0.90;;;0.90;;
84133;SDS011;74235;48.688;9.708;2024-01-06T05:18:48;1.05;;;1.02;;
84133;SDS011;74235;48.688;9.708;2024-01-06T05:21:17;1.52;;;1.15;;
84133;SDS011;74235;48.688;9.708;2024-01-06T05:23:44;1.10;;;1.00;;
84133;SDS011;74235;48.688;9.708;2024-01-06T05:28:41;0.63;;;0.63;;
84133;SDS011;74235;48.688;9.708;2024-01-06T05:33:37;1.17;;;1.08;;
84133;SDS011;74235;48.688;9.708;2024-01-06T05:36:05;0.77;;;0.77;;
84133;SDS011;74235;48.688;9.708;2024-01-06T05:38:33;1.10;;;1.05;;
84133;SDS011;74235;48.688;9.708;2024-01-06T05:43:28;1.05;;;1.05;;
84133;SDS011;74235;48.688;9.708;2024-01-06T05:45:56;1.27;;;1.17;;
84133;SDS011;74235;48.688;9.708;2024-01-06T05:48:24;0.77;;;0.77;;
84133;SDS011;74235;48.688;9.708;2024-01-06T05:50:53;0.85;;;0.82;;
84133;SDS011;74235;48.688;9.708;2024-01-06T05:53:21;0.77;;;0.77;;
84133;SDS011;74235;48.688;9.708;2024-01-06T05:55:49;1.17;;;1.10;;
84133;SDS011;74235;48.688;9.708;2024-01-06T05:58:17;1.05;;;0.95;;
84133;SDS011;74235;48.688;9.708;2024-01-06T06:00:45;1.25;;;1.08;;
84133;SDS011;74235;48.688;9.708;2024-01-06T06:03:14;1.00;;;0.90;;
84133;SDS011;74235;48.688;9.708;2024-01-06T06:05:42;0.82;;;0.82;;
84133;SDS011;74235;48.688;9.708;2024-01-06T06:08:11;0.70;;;0.70;;
84133;SDS011;74235;48.688;9.708;2024-01-06T06:10:39;0.90;;;0.90;;
84133;SDS011;74235;48.688;9.708;2024-01-06T06:13:27;1.10;;;1.00;;
84133;SDS011;74235;48.688;9.708;2024-01-06T06:15:55;0.80;;;0.80;;
84133;SDS011;74235;48.688;9.708;2024-01-06T06:18:23;0.85;;;0.85;;
84133;SDS011;74235;48.688;9.708;2024-01-06T06:20:50;0.80;;;0.80;;
84133;SDS011;74235;48.688;9.708;2024-01-06T06:23:19;1.15;;;1.05;;
84133;SDS011;74235;48.688;9.708;2024-01-06T06:25:47;0.98;;;0.88;;
84133;SDS011;74235;48.688;9.708;2024-01-06T06:30:43;0.88;;;0.88;;
84133;SDS011;74235;48.688;9.708;2024-01-06T06:33:10;0.75;;;0.75;;
84133;SDS011;74235;48.688;9.708;2024-01-06T06:35:38;0.70;;;0.70;;
84133;SDS011;74235;48.688;9.708;2024-01-06T06:38:06;0.50;;;0.50;;
84133;SDS011;74235;48.688;9.708;2024-01-06T06:40:35;0.82;;;0.75;;
84133;SDS011;74235;48.688;9.708;2024-01-06T06:43:03;0.65;;;0.65;;
84133;SDS011;74235;48.688;9.708;2024-01-06T06:45:30;0.70;;;0.70;;
84133;SDS011;74235;48.688;9.708;2024-01-06T06:47:58;0.65;;;0.65;;
84133;SDS011;74235;48.688;9.708;2024-01-06T06:50:26;0.50;;;0.50;;
84133;SDS011;74235;48.688;9.708;2024-01-06T06:52:53;1.00;;;0.98;;
84133;SDS011;74235;48.688;9.708;2024-01-06T06:55:21;1.15;;;0.98;;
84133;SDS011;74235;48.688;9.708;2024-01-06T06:57:50;0.55;;;0.55;;
84133;SDS011;74235;48.688;9.708;2024-01-06T07:00:18;1.10;;;0.80;;
84133;SDS011;74235;48.688;9.708;2024-01-06T07:02:46;0.90;;;0.90;;
84133;SDS011;74235;48.688;9.708;2024-01-06T07:05:14;0.70;;;0.70;;
84133;SDS011;74235;48.688;9.708;2024-01-06T07:07:42;0.63;;;0.63;;
84133;SDS011;74235;48.688;9.708;2024-01-06T07:10:14;0.60;;;0.60;;
84133;SDS011;74235;48.688;9.708;2024-01-06T07:12:41;1.08;;;0.98;;
84133;SDS011;74235;48.688;9.708;2024-01-06T07:15:11;1.55;;;0.93;;
84133;SDS011;74235;48.688;9.708;2024-01-06T07:17:39;0.70;;;0.70;;
84133;SDS011;74235;48.688;9.708;2024-01-06T07:20:07;0.98;;;0.80;;
84133;SDS011;74235;48.688;9.708;2024-01-06T07:22:35;0.95;;;0.90;;
84133;SDS011;74235;48.688;9.708;2024-01-06T07:25:03;1.05;;;0.90;;
84133;SDS011;74235;48.688;9.708;2024-01-06T07:27:32;0.55;;;0.55;;
84133;SDS011;74235;48.688;9.708;2024-01-06T07:30:00;1.08;;;0.98;;
84133;SDS011;74235;48.688;9.708;2024-01-06T07:32:30;1.05;;;1.02;;
84133;SDS011;74235;48.688;9.708;2024-01-06T07:34:58;0.80;;;0.80;;
84133;SDS011;74235;48.688;9.708;2024-01-06T07:37:29;0.95;;;0.85;;
84133;SDS011;74235;48.688;9.708;2024-01-06T07:39:57;0.93;;;0.93;;
84133;SDS011;74235;48.688;9.708;2024-01-06T07:42:24;0.75;;;0.75;;
84133;SDS011;74235;48.688;9.708;2024-01-06T07:44:52;0.77;;;0.77;;
84133;SDS011;74235;48.688;9.708;2024-01-06T07:47:19;1.20;;;1.10;;
84133;SDS011;74235;48.688;9.708;2024-01-06T07:52:16;0.90;;;0.90;;
84133;SDS011;74235;48.688;9.708;2024-01-06T07:54:44;0.50;;;0.50;;
84133;SDS011;74235;48.688;9.708;2024-01-06T07:57:11;0.90;;;0.88;;
84133;SDS011;74235;48.688;9.708;2024-01-06T07:59:40;0.75;;;0.70;;
84133;SDS011;74235;48.688;9.708;2024-01-06T08:02:08;1.05;;;0.82;;
84133;SDS011;74235;48.688;9.708;2024-01-06T08:04:36;0.50;;;0.50;;
84133;SDS011;74235;48.688;9.708;2024-01-06T08:07:05;1.08;;;0.90;;
84133;SDS011;74235;48.688;9.708;2024-01-06T08:09:33;0.98;;;0.93;;
84133;SDS011;74235;48.688;9.708;2024-01-06T08:12:01;0.98;;;0.98;;
84133;SDS011;74235;48.688;9.708;2024-01-06T08:14:29;0.70;;;0.70;;
84133;SDS011;74235;48.688;9.708;2024-01-06T08:19:24;0.93;;;0.85;;
84133;SDS011;74235;48.688;9.708;2024-01-06T08:21:53;0.65;;;0.65;;
84133;SDS011;74235;48.688;9.708;2024-01-06T08:24:22;1.60;;;0.93;;
84133;SDS011;74235;48.688;9.708;2024-01-06T08:26:50;0.60;;;0.60;;
84133;SDS011;74235;48.688;9.708;2024-01-06T08:29:17;0.95;;;0.95;;
84133;SDS011;74235;48.688;9.708;2024-01-06T08:31:47;0.88;;;0.88;;
84133;SDS011;74235;48.688;9.708;2024-01-06T08:34:15;1.00;;;0.98;;
84133;SDS011;74235;48.688;9.708;2024-01-06T08:36:42;0.80;;;0.80;;
84133;SDS011;74235;48.688;9.708;2024-01-06T08:39:10;0.75;;;0.75;;
84133;SDS011;74235;48.688;9.708;2024-01-06T08:41:39;1.13;;;1.02;;
84133;SDS011;74235;48.688;9.708;2024-01-06T08:44:07;1.27;;;0.80;;
84133;SDS011;74235;48.688;9.708;2024-01-06T08:49:02;1.05;;;0.95;;
84133;SDS011;74235;48.688;9.708;2024-01-06T08:51:30;0.80;;;0.80;;
84133;SDS011;74235;48.688;9.708;2024-01-06T08:53:58;1.10;;;1.00;;
84133;SDS011;74235;48.688;9.708;2024-01-06T08:58:54;0.95;;;0.82;;
84133;SDS011;74235;48.688;9.708;2024-01-06T09:01:22;1.10;;;1.00;;
84133;SDS011;74235;48.688;9.708;2024-01-06T09:03:50;0.70;;;0.70;;
84133;SDS011;74235;48.688;9.708;2024-01-06T09:06:17;0.80;;;0.80;;
84133;SDS011;74235;48.688;9.708;2024-01-06T09:08:45;1.40;;;0.90;;
84133;SDS011;74235;48.688;9.708;2024-01-06T09:13:41;0.88;;;0.82;;
84133;SDS011;74235;48.688;9.708;2024-01-06T09:16:10;0.90;;;0.90;;
84133;SDS011;74235;48.688;9.708;2024-01-06T09:18:37;1.02;;;1.00;;
84133;SDS011;74235;48.688;9.708;2024-01-06T09:21:05;0.98;;;0.88;;
84133;SDS011;74235;48.688;9.708;2024-01-06T09:23:35;1.08;;;0.90;;
84133;SDS011;74235;48.688;9.708;2024-01-06T09:26:03;0.68;;;0.68;;
84133;SDS011;74235;48.688;9.708;2024-01-06T09:28:30;0.98;;;0.95;;
84133;SDS011;74235;48.688;9.708;2024-01-06T09:30:58;0.88;;;0.80;;
84133;SDS011;74235;48.688;9.708;2024-01-06T09:33:27;1.17;;;1.08;;
84133;SDS011;74235;48.688;9.708;2024-01-06T09:35:55;0.80;;;0.80;;
84133;SDS011;74235;48.688;9.708;2024-01-06T09:38:23;0.88;;;0.88;;
84133;SDS011;74235;48.688;9.708;2024-01-06T09:40:50;0.68;;;0.68;;
84133;SDS011;74235;48.688;9.708;2024-01-06T09:43:20;0.80;;;0.80;;
84133;SDS011;74235;48.688;9.708;2024-01-06T09:45:48;0.90;;;0.90;;
84133;SDS011;74235;48.688;9.708;2024-01-06T09:48:27;0.90;;;0.85;;
84133;SDS011;74235;48.688;9.708;2024-01-06T09:51:01;0.60;;;0.60;;
84133;SDS011;74235;48.688;9.708;2024-01-06T09:53:33;0.77;;;0.77;;
84133;SDS011;74235;48.688;9.708;2024-01-06T09:56:03;0.93;;;0.90;;
84133;SDS011;74235;48.688;9.708;2024-01-06T09:58:33;0.85;;;0.60;;
84133;SDS011;74235;48.688;9.708;2024-01-06T10:01:04;0.60;;;0.60;;
84133;SDS011;74235;48.688;9.708;2024-01-06T10:03:35;0.82;;;0.82;;
84133;SDS011;74235;48.688;9.708;2024-01-06T10:06:03;0.70;;;0.70;;
84133;SDS011;74235;48.688;9.708;2024-01-06T10:08:32;0.75;;;0.75;;
84133;SDS011;74235;48.688;9.708;2024-01-06T10:11:02;0.77;;;0.77;;
84133;SDS011;74235;48.688;9.708;2024-01-06T10:13:30;0.95;;;0.93;;
84133;SDS011;74235;48.688;9.708;2024-01-06T10:15:58;0.63;;;0.63;;
84133;SDS011;74235;48.688;9.708;2024-01-06T10:18:25;0.88;;;0.88;;
84133;SDS011;74235;48.688;9.708;2024-01-06T10:20:58;1.67;;;0.75;;
84133;SDS011;74235;48.688;9.708;2024-01-06T10:23:26;0.82;;;0.73;;
84133;SDS011;74235;48.688;9.708;2024-01-06T10:25:54;0.68;;;0.68;;
84133;SDS011;74235;48.688;9.708;2024-01-06T10:28:26;0.57;;;0.57;;
84133;SDS011;74235;48.688;9.708;2024-01-06T10:30:54;0.63;;;0.63;;
84133;SDS011;74235;48.688;9.708;2024-01-06T10:33:23;0.73;;;0.73;;
84133;SDS011;74235;48.688;9.708;2024-01-06T10:35:53;0.38;;;0.38;;
84133;SDS011;74235;48.688;9.708;2024-01-06T10:38:24;0.50;;;0.50;;
84133;SDS011;74235;48.688;9.708;2024-01-06T10:40:56;0.55;;;0.55;;
84133;SDS011;74235;48.688;9.708;2024-01-06T10:43:25;0.95;;;0.80;;
84133;SDS011;74235;48.688;9.708;2024-01-06T10:45:57;1.02;;;0.73;;
84133;SDS011;74235;48.688;9.708;2024-01-06T10:48:27;0.68;;;0.68;;
84133;SDS011;74235;48.688;9.708;2024-01-06T10:50:58;0.50;;;0.50;;
84133;SDS011;74235;48.688;9.708;2024-01-06T10:53:28;0.63;;;0.63;;
84133;SDS011;74235;48.688;9.708;2024-01-06T10:55:57;0.60;;;0.60;;
84133;SDS011;74235;48.688;9.708;2024-01-06T10:58:26;0.80;;;0.80;;
84133;SDS011;74235;48.688;9.708;2024-01-06T11:00:55;0.50;;;0.50;;
84133;SDS011;74235;48.688;9.708;2024-01-06T11:03:23;0.52;;;0.52;;
84133;SDS011;74235;48.688;9.708;2024-01-06T11:05:52;1.20;;;0.73;;
84133;SDS011;74235;48.688;9.708;2024-01-06T11:08:19;0.82;;;0.82;;
84133;SDS011;74235;48.688;9.708;2024-01-06T11:10:50;0.70;;;0.70;;
84133;SDS011;74235;48.688;9.708;2024-01-06T11:13:21;0.65;;;0.65;;
84133;SDS011;74235;48.688;9.708;2024-01-06T11:15:50;0.93;;;0.90;;
84133;SDS011;74235;48.688;9.708;2024-01-06T11:18:30;0.80;;;0.80;;
84133;SDS011;74235;48.688;9.708;2024-01-06T11:21:16;0.68;;;0.68;;
84133;SDS011;74235;48.688;9.708;2024-01-06T11:23:45;0.57;;;0.57;;
84133;SDS011;74235;48.688;9.708;2024-01-06T11:26:14;0.63;;;0.63;;
84133;SDS011;74235;48.688;9.708;2024-01-06T11:28:45;0.75;;;0.75;;
84133;SDS011;74235;48.688;9.708;2024-01-06T11:31:13;0.50;;;0.50;;
84133;SDS011;74235;48.688;9.708;2024-01-06T11:33:41;0.70;;;0.70;;
84133;SDS011;74235;48.688;9.708;2024-01-06T11:36:09;0.70;;;0.70;;
84133;SDS011;74235;48.688;9.708;2024-01-06T11:38:38;0.55;;;0.55;;
84133;SDS011;74235;48.688;9.708;2024-01-06T11:41:06;0.85;;;0.60;;
84133;SDS011;74235;48.688;9.708;2024-01-06T11:43:37;0.45;;;0.45;;
84133;SDS011;74235;48.688;9.708;2024-01-06T11:46:06;0.57;;;0.57;;
84133;SDS011;74235;48.688;9.708;2024-01-06T11:48:35;0.68;;;0.68;;
84133;SDS011;74235;48.688;9.708;2024-01-06T11:51:04;0.60;;;0.60;;
84133;SDS011;74235;48.688;9.708;2024-01-06T11:53:31;0.75;;;0.63;;
84133;SDS011;74235;48.688;9.708;2024-01-06T11:55:59;0.68;;;0.68;;
84133;SDS011;74235;48.688;9.708;2024-01-06T11:58:27;0.65;;;0.65;;
84133;SDS011;74235;48.688;9.708;2024-01-06T12:00:57;1.15;;;0.95;;
84133;SDS011;74235;48.688;9.708;2024-01-06T12:03:25;0.65;;;0.65;;
84133;SDS011;74235;48.688;9.708;2024-01-06T12:05:59;0.80;;;0.80;;
84133;SDS011;74235;48.688;9.708;2024-01-06T12:08:28;0.50;;;0.50;;
84133;SDS011;74235;48.688;9.708;2024-01-06T12:11:02;0.57;;;0.57;;
84133;SDS011;74235;48.688;9.708;2024-01-06T12:13:30;0.63;;;0.63;;
84133;SDS011;74235;48.688;9.708;2024-01-06T12:15:59;0.55;;;0.55;;
84133;SDS011;74235;48.688;9.708;2024-01-06T12:18:28;0.57;;;0.57;;
84133;SDS011;74235;48.688;9.708;2024-01-06T12:20:55;0.50;;;0.50;;
84133;SDS011;74235;48.688;9.708;2024-01-06T12:23:24;0.75;;;0.75;;
84133;SDS011;74235;48.688;9.708;2024-01-06T12:25:55;0.50;;;0.50;;
84133;SDS011;74235;48.688;9.708;2024-01-06T12:28:23;0.85;;;0.85;;
84133;SDS011;74235;48.688;9.708;2024-01-06T12:30:51;0.68;;;0.60;;
84133;SDS011;74235;48.688;9.708;2024-01-06T12:33:22;0.50;;;0.50;;
84133;SDS011;74235;48.688;9.708;2024-01-06T12:35:49;0.50;;;0.50;;
84133;SDS011;74235;48.688;9.708;2024-01-06T12:38:19;0.47;;;0.47;;
84133;SDS011;74235;48.688;9.708;2024-01-06T12:40:47;0.73;;;0.73;;
84133;SDS011;74235;48.688;9.708;2024-01-06T12:45:42;0.50;;;0.50;;
84133;SDS011;74235;48.688;9.708;2024-01-06T12:48:09;0.80;;;0.80;;
84133;SDS011;74235;48.688;9.708;2024-01-06T12:50:40;0.60;;;0.60;;
84133;SDS011;74235;48.688;9.708;2024-01-06T12:53:07;0.55;;;0.55;;
84133;SDS011;74235;48.688;9.708;2024-01-06T12:55:35;0.68;;;0.68;;
84133;SDS011;74235;48.688;9.708;2024-01-06T13:00:31;0.82;;;0.82;;
84133;SDS011;74235;48.688;9.708;2024-01-06T13:03:03;0.77;;;0.70;;
84133;SDS011;74235;48.688;9.708;2024-01-06T13:05:32;0.50;;;0.50;;
84133;SDS011;74235;48.688;9.708;2024-01-06T13:10:29;0.60;;;0.60;;
84133;SDS011;74235;48.688;9.708;2024-01-06T13:12:57;0.80;;;0.80;;
84133;SDS011;74235;48.688;9.708;2024-01-06T13:17:52;0.70;;;0.70;;
84133;SDS011;74235;48.688;9.708;2024-01-06T13:20:20;0.82;;;0.82;;
84133;SDS011;74235;48.688;9.708;2024-01-06T13:22:47;0.50;;;0.50;;
84133;SDS011;74235;48.688;9.708;2024-01-06T13:27:44;0.95;;;0.95;;
84133;SDS011;74235;48.688;9.708;2024-01-06T13:30:12;0.88;;;0.88;;
84133;SDS011;74235;48.688;9.708;2024-01-06T13:32:45;0.68;;;0.68;;
84133;SDS011;74235;48.688;9.708;2024-01-06T13:35:13;0.57;;;0.57;;
84133;SDS011;74235;48.688;9.708;2024-01-06T13:40:10;0.73;;;0.73;;
84133;SDS011;74235;48.688;9.708;2024-01-06T13:42:39;0.82;;;0.82;;
84133;SDS011;74235;48.688;9.708;2024-01-06T13:45:07;0.80;;;0.80;;
84133;SDS011;74235;48.688;9.708;2024-01-06T13:47:35;0.80;;;0.80;;
84133;SDS011;74235;48.688;9.708;2024-01-06T13:50:03;0.85;;;0.85;;
84133;SDS011;74235;48.688;9.708;2024-01-06T13:52:31;0.75;;;0.75;;
84133;SDS011;74235;48.688;9.708;2024-01-06T13:54:59;0.73;;;0.73;;
84133;SDS011;74235;48.688;9.708;2024-01-06T13:57:27;0.70;;;0.70;;
84133;SDS011;74235;48.688;9.708;2024-01-06T13:59:56;0.60;;;0.60;;
84133;SDS011;74235;48.688;9.708;2024-01-06T14:02:24;0.68;;;0.68;;
84133;SDS011;74235;48.688;9.708;2024-01-06T14:04:52;1.00;;;0.75;;
84133;SDS011;74235;48.688;9.708;2024-01-06T14:07:20;0.95;;;0.70;;
84133;SDS011;74235;48.688;9.708;2024-01-06T14:09:49;0.40;;;0.40;;
84133;SDS011;74235;48.688;9.708;2024-01-06T14:14:44;0.70;;;0.70;;
84133;SDS011;74235;48.688;9.708;2024-01-06T14:17:14;0.80;;;0.80;;
84133;SDS011;74235;48.688;9.708;2024-01-06T14:19:42;0.73;;;0.73;;
84133;SDS011;74235;48.688;9.708;2024-01-06T14:22:14;0.65;;;0.65;;
84133;SDS011;74235;48.688;9.708;2024-01-06T14:24:42;0.68;;;0.68;;
84133;SDS011;74235;48.688;9.708;2024-01-06T14:29:37;0.70;;;0.70;;
84133;SDS011;74235;48.688;9.708;2024-01-06T14:32:06;0.77;;;0.77;;
84133;SDS011;74235;48.688;9.708;2024-01-06T14:34:36;0.63;;;0.63;;
84133;SDS011;74235;48.688;9.708;2024-01-06T14:37:03;0.80;;;0.80;;
84133;SDS011;74235;48.688;9.708;2024-01-06T14:39:31;1.10;;;0.85;;
84133;SDS011;74235;48.688;9.708;2024-01-06T14:41:59;0.57;;;0.57;;
84133;SDS011;74235;48.688;9.708;2024-01-06T14:46:55;0.60;;;0.60;;
84133;SDS011;74235;48.688;9.708;2024-01-06T14:49:23;0.68;;;0.68;;
84133;SDS011;74235;48.688;9.708;2024-01-06T14:51:52;0.60;;;0.60;;
84133;SDS011;74235;48.688;9.708;2024-01-06T14:54:23;0.57;;;0.57;;
84133;SDS011;74235;48.688;9.708;2024-01-06T14:56:50;0.68;;;0.68;;
84133;SDS011;74235;48.688;9.708;2024-01-06T14:59:18;0.85;;;0.85;;
84133;SDS011;74235;48.688;9.708;2024-01-06T15:01:47;0.52;;;0.52;;
84133;SDS011;74235;48.688;9.708;2024-01-06T15:04:15;0.80;;;0.73;;
84133;SDS011;74235;48.688;9.708;2024-01-06T15:06:45;0.52;;;0.52;;
84133;SDS011;74235;48.688;9.708;2024-01-06T15:09:15;0.80;;;0.80;;
84133;SDS011;74235;48.688;9.708;2024-01-06T15:11:43;0.77;;;0.77;;
84133;SDS011;74235;48.688;9.708;2024-01-06T15:14:10;0.55;;;0.55;;
84133;SDS011;74235;48.688;9.708;2024-01-06T15:16:38;0.80;;;0.80;;
84133;SDS011;74235;48.688;9.708;2024-01-06T15:19:06;0.82;;;0.82;;
84133;SDS011;74235;48.688;9.708;2024-01-06T15:21:35;0.77;;;0.75;;
84133;SDS011;74235;48.688;9.708;2024-01-06T15:24:04;0.70;;;0.70;;
84133;SDS011;74235;48.688;9.708;2024-01-06T15:26:34;0.65;;;0.65;;
84133;SDS011;74235;48.688;9.708;2024-01-06T15:29:01;0.70;;;0.70;;
84133;SDS011;74235;48.688;9.708;2024-01-06T15:31:30;0.47;;;0.47;;
84133;SDS011;74235;48.688;9.708;2024-01-06T15:33:58;0.68;;;0.68;;
84133;SDS011;74235;48.688;9.708;2024-01-06T15:36:25;0.60;;;0.60;;
84133;SDS011;74235;48.688;9.708;2024-01-06T15:41:20;0.65;;;0.65;;
84133;SDS011;74235;48.688;9.708;2024-01-06T15:46:17;0.60;;;0.60;;
84133;SDS011;74235;48.688;9.708;2024-01-06T15:48:45;0.82;;;0.50;;
84133;SDS011;74235;48.688;9.708;2024-01-06T15:51:13;0.70;;;0.70;;
84133;SDS011;74235;48.688;9.708;2024-01-06T15:56:08;0.70;;;0.70;;
84133;SDS011;74235;48.688;9.708;2024-01-06T15:58:35;0.57;;;0.57;;
84133;SDS011;74235;48.688;9.708;2024-01-06T16:01:04;0.60;;;0.60;;
84133;SDS011;74235;48.688;9.708;2024-01-06T16:03:33;0.65;;;0.65;;
84133;SDS011;74235;48.688;9.708;2024-01-06T16:08:28;0.68;;;0.68;;
84133;SDS011;74235;48.688;9.708;2024-01-06T16:10:56;0.43;;;0.43;;
84133;SDS011;74235;48.688;9.708;2024-01-06T16:15:51;0.65;;;0.65;;
84133;SDS011;74235;48.688;9.708;2024-01-06T16:18:23;0.52;;;0.52;;
84133;SDS011;74235;48.688;9.708;2024-01-06T16:20:51;0.68;;;0.68;;
84133;SDS011;74235;48.688;9.708;2024-01-06T16:23:21;0.70;;;0.70;;
84133;SDS011;74235;48.688;9.708;2024-01-06T16:25:50;0.80;;;0.80;;
84133;SDS011;74235;48.688;9.708;2024-01-06T16:30:46;0.65;;;0.65;;
84133;SDS011;74235;48.688;9.708;2024-01-06T16:33:13;0.70;;;0.70;;
84133;SDS011;74235;48.688;9.708;2024-01-06T16:35:44;0.80;;;0.80;;
84133;SDS011;74235;48.688;9.708;2024-01-06T16:38:13;0.70;;;0.70;;
84133;SDS011;74235;48.688;9.708;2024-01-06T16:40:41;0.60;;;0.60;;
84133;SDS011;74235;48.688;9.708;2024-01-06T16:45:36;0.63;;;0.55;;
84133;SDS011;74235;48.688;9.708;2024-01-06T16:48:04;0.55;;;0.55;;
84133;SDS011;74235;48.688;9.708;2024-01-06T16:50:33;0.47;;;0.47;;